sensor_id;sensor_type;location;lat;lon;timestamp;P1;durP1;ratioP1;P2;durP2;ratioP2
66546;SDS011;53400;50.364;14.874;2022-08-19T00:00:15;7.32;;;2.90;;
66546;SDS011;53400;50.364;14.874;2022-08-19T00:03:01;7.13;;;2.60;;
66546;SDS011;53400;50.364;14.874;2022-08-19T00:05:28;5.95;;;2.60;;
66546;SDS011;53400;50.364;14.874;2022-08-19T00:07:54;7.35;;;3.05;;
66546;SDS011;53400;50.364;14.874;2022-08-19T00:10:20;7.95;;;2.85;;
66546;SDS011;53400;50.364;14.874;2022-08-19T00:12:46;7.70;;;3.00;;
66546;SDS011;53400;50.364;14.874;2022-08-19T00:15:15;8.15;;;2.92;;
66546;SDS011;53400;50.364;14.874;2022-08-19T00:17:43;5.88;;;2.88;;
66546;SDS011;53400;50.364;14.874;2022-08-19T00:20:11;8.13;;;2.83;;
66546;SDS011;53400;50.364;14.874;2022-08-19T00:22:41;7.80;;;2.90;;
66546;SDS011;53400;50.364;14.874;2022-08-19T00:25:08;5.07;;;2.33;;
66546;SDS011;53400;50.364;14.874;2022-08-19T00:27:34;7.32;;;3.00;;
66546;SDS011;53400;50.364;14.874;2022-08-19T00:30:00;7.20;;;2.85;;
66546;SDS011;53400;50.364;14.874;2022-08-19T00:32:29;7.28;;;3.22;;
66546;SDS011;53400;50.364;14.874;2022-08-19T00:34:55;7.25;;;2.63;;
66546;SDS011;53400;50.364;14.874;2022-08-19T00:37:22;6.63;;;2.60;;
66546;SDS011;53400;50.364;14.874;2022-08-19T00:39:49;7.15;;;2.85;;
66546;SDS011;53400;50.364;14.874;2022-08-19T00:42:16;7.22;;;2.65;;
66546;SDS011;53400;50.364;14.874;2022-08-19T00:44:43;7.60;;;2.90;;
66546;SDS011;53400;50.364;14.874;2022-08-19T00:47:09;9.60;;;2.85;;
66546;SDS011;53400;50.364;14.874;2022-08-19T00:49:40;5.75;;;2.58;;
66546;SDS011;53400;50.364;14.874;2022-08-19T00:52:11;10.85;;;3.30;;
66546;SDS011;53400;50.364;14.874;2022-08-19T00:54:40;6.90;;;2.75;;
66546;SDS011;53400;50.364;14.874;2022-08-19T00:57:09;8.68;;;2.85;;
66546;SDS011;53400;50.364;14.874;2022-08-19T00:59:41;8.45;;;2.90;;
66546;SDS011;53400;50.364;14.874;2022-08-19T01:02:09;8.18;;;3.22;;
66546;SDS011;53400;50.364;14.874;2022-08-19T01:04:34;8.55;;;3.58;;
66546;SDS011;53400;50.364;14.874;2022-08-19T01:07:02;7.97;;;3.20;;
66546;SDS011;53400;50.364;14.874;2022-08-19T01:09:28;6.75;;;3.42;;
66546;SDS011;53400;50.364;14.874;2022-08-19T01:11:55;7.15;;;3.55;;
66546;SDS011;53400;50.364;14.874;2022-08-19T01:14:22;10.68;;;3.63;;
66546;SDS011;53400;50.364;14.874;2022-08-19T01:16:48;7.60;;;3.80;;
66546;SDS011;53400;50.364;14.874;2022-08-19T01:19:21;8.15;;;3.90;;
66546;SDS011;53400;50.364;14.874;2022-08-19T01:21:52;7.82;;;4.10;;
66546;SDS011;53400;50.364;14.874;2022-08-19T01:24:27;7.90;;;4.15;;
66546;SDS011;53400;50.364;14.874;2022-08-19T01:26:53;7.60;;;4.30;;
66546;SDS011;53400;50.364;14.874;2022-08-19T01:29:20;9.88;;;4.15;;
66546;SDS011;53400;50.364;14.874;2022-08-19T01:31:45;10.13;;;4.43;;
66546;SDS011;53400;50.364;14.874;2022-08-19T01:34:11;9.38;;;4.53;;
66546;SDS011;53400;50.364;14.874;2022-08-19T01:36:38;9.63;;;4.65;;
66546;SDS011;53400;50.364;14.874;2022-08-19T01:39:07;8.00;;;4.90;;
66546;SDS011;53400;50.364;14.874;2022-08-19T01:41:37;9.48;;;5.35;;
66546;SDS011;53400;50.364;14.874;2022-08-19T01:44:03;8.70;;;4.97;;
66546;SDS011;53400;50.364;14.874;2022-08-19T01:46:30;8.55;;;5.00;;
66546;SDS011;53400;50.364;14.874;2022-08-19T01:48:56;9.90;;;5.35;;
66546;SDS011;53400;50.364;14.874;2022-08-19T01:51:22;11.55;;;5.72;;
66546;SDS011;53400;50.364;14.874;2022-08-19T01:53:48;9.70;;;5.20;;
66546;SDS011;53400;50.364;14.874;2022-08-19T01:56:15;8.80;;;5.68;;
66546;SDS011;53400;50.364;14.874;2022-08-19T01:58:45;12.07;;;5.88;;
66546;SDS011;53400;50.364;14.874;2022-08-19T02:01:18;9.00;;;6.07;;
66546;SDS011;53400;50.364;14.874;2022-08-19T02:03:44;11.30;;;5.90;;
66546;SDS011;53400;50.364;14.874;2022-08-19T02:06:11;9.27;;;6.05;;
66546;SDS011;53400;50.364;14.874;2022-08-19T02:08:38;12.25;;;6.05;;
66546;SDS011;53400;50.364;14.874;2022-08-19T02:11:04;10.25;;;7.15;;
66546;SDS011;53400;50.364;14.874;2022-08-19T02:13:31;11.40;;;7.32;;
66546;SDS011;53400;50.364;14.874;2022-08-19T02:15:59;13.70;;;7.22;;
66546;SDS011;53400;50.364;14.874;2022-08-19T02:18:25;11.02;;;7.25;;
66546;SDS011;53400;50.364;14.874;2022-08-19T02:20:51;11.88;;;7.45;;
66546;SDS011;53400;50.364;14.874;2022-08-19T02:23:18;12.35;;;6.60;;
66546;SDS011;53400;50.364;14.874;2022-08-19T02:25:44;12.25;;;7.57;;
66546;SDS011;53400;50.364;14.874;2022-08-19T02:28:14;12.48;;;7.38;;
66546;SDS011;53400;50.364;14.874;2022-08-19T02:30:40;12.45;;;7.47;;
66546;SDS011;53400;50.364;14.874;2022-08-19T02:33:08;11.98;;;7.50;;
66546;SDS011;53400;50.364;14.874;2022-08-19T02:35:33;10.82;;;7.32;;
66546;SDS011;53400;50.364;14.874;2022-08-19T02:38:00;12.40;;;7.35;;
66546;SDS011;53400;50.364;14.874;2022-08-19T02:40:47;10.73;;;7.30;;
66546;SDS011;53400;50.364;14.874;2022-08-19T02:43:15;9.82;;;6.93;;
66546;SDS011;53400;50.364;14.874;2022-08-19T02:45:41;10.55;;;7.93;;
66546;SDS011;53400;50.364;14.874;2022-08-19T02:48:08;10.80;;;7.57;;
66546;SDS011;53400;50.364;14.874;2022-08-19T02:50:36;11.43;;;7.97;;
66546;SDS011;53400;50.364;14.874;2022-08-19T02:53:02;12.15;;;8.20;;
66546;SDS011;53400;50.364;14.874;2022-08-19T02:55:28;14.00;;;7.70;;
66546;SDS011;53400;50.364;14.874;2022-08-19T02:57:54;11.98;;;8.27;;
66546;SDS011;53400;50.364;14.874;2022-08-19T03:00:20;12.45;;;8.35;;
66546;SDS011;53400;50.364;14.874;2022-08-19T03:02:46;12.05;;;8.23;;
66546;SDS011;53400;50.364;14.874;2022-08-19T03:05:13;12.38;;;8.25;;
66546;SDS011;53400;50.364;14.874;2022-08-19T03:07:39;12.02;;;8.48;;
66546;SDS011;53400;50.364;14.874;2022-08-19T03:10:05;13.40;;;9.57;;
66546;SDS011;53400;50.364;14.874;2022-08-19T03:12:34;13.68;;;9.50;;
66546;SDS011;53400;50.364;14.874;2022-08-19T03:15:02;13.13;;;8.68;;
66546;SDS011;53400;50.364;14.874;2022-08-19T03:17:29;12.23;;;9.32;;
66546;SDS011;53400;50.364;14.874;2022-08-19T03:19:55;12.77;;;9.10;;
66546;SDS011;53400;50.364;14.874;2022-08-19T03:22:22;13.77;;;8.60;;
66546;SDS011;53400;50.364;14.874;2022-08-19T03:24:48;14.30;;;9.23;;
66546;SDS011;53400;50.364;14.874;2022-08-19T03:27:14;12.98;;;9.95;;
66546;SDS011;53400;50.364;14.874;2022-08-19T03:29:40;15.98;;;9.75;;
66546;SDS011;53400;50.364;14.874;2022-08-19T03:32:06;14.38;;;10.65;;
66546;SDS011;53400;50.364;14.874;2022-08-19T03:34:33;13.13;;;10.77;;
66546;SDS011;53400;50.364;14.874;2022-08-19T03:37:03;12.85;;;10.30;;
66546;SDS011;53400;50.364;14.874;2022-08-19T03:39:31;14.70;;;11.40;;
66546;SDS011;53400;50.364;14.874;2022-08-19T03:41:57;17.67;;;12.45;;
66546;SDS011;53400;50.364;14.874;2022-08-19T03:44:25;14.68;;;11.90;;
66546;SDS011;53400;50.364;14.874;2022-08-19T03:46:52;14.40;;;12.00;;
66546;SDS011;53400;50.364;14.874;2022-08-19T03:49:21;16.05;;;13.13;;
66546;SDS011;53400;50.364;14.874;2022-08-19T03:51:48;16.77;;;13.98;;
66546;SDS011;53400;50.364;14.874;2022-08-19T03:54:16;19.23;;;15.45;;
66546;SDS011;53400;50.364;14.874;2022-08-19T03:56:46;18.30;;;15.35;;
66546;SDS011;53400;50.364;14.874;2022-08-19T03:59:14;20.58;;;14.77;;
66546;SDS011;53400;50.364;14.874;2022-08-19T04:01:42;17.92;;;13.88;;
66546;SDS011;53400;50.364;14.874;2022-08-19T04:04:08;17.08;;;14.00;;
66546;SDS011;53400;50.364;14.874;2022-08-19T04:06:35;17.02;;;13.07;;
66546;SDS011;53400;50.364;14.874;2022-08-19T04:09:04;16.88;;;12.77;;
66546;SDS011;53400;50.364;14.874;2022-08-19T04:11:33;17.63;;;11.77;;
66546;SDS011;53400;50.364;14.874;2022-08-19T04:14:02;14.07;;;10.98;;
66546;SDS011;53400;50.364;14.874;2022-08-19T04:16:28;13.65;;;10.43;;
66546;SDS011;53400;50.364;14.874;2022-08-19T04:18:54;15.05;;;11.70;;
66546;SDS011;53400;50.364;14.874;2022-08-19T04:21:22;17.40;;;12.50;;
66546;SDS011;53400;50.364;14.874;2022-08-19T04:23:49;14.80;;;12.00;;
66546;SDS011;53400;50.364;14.874;2022-08-19T04:26:15;13.82;;;10.30;;
66546;SDS011;53400;50.364;14.874;2022-08-19T04:28:43;11.35;;;8.73;;
66546;SDS011;53400;50.364;14.874;2022-08-19T04:31:14;12.60;;;8.57;;
66546;SDS011;53400;50.364;14.874;2022-08-19T04:33:41;11.27;;;7.85;;
66546;SDS011;53400;50.364;14.874;2022-08-19T04:36:07;13.10;;;8.88;;
66546;SDS011;53400;50.364;14.874;2022-08-19T04:38:40;15.05;;;10.27;;
66546;SDS011;53400;50.364;14.874;2022-08-19T04:41:06;15.23;;;10.77;;
66546;SDS011;53400;50.364;14.874;2022-08-19T04:43:51;14.77;;;11.48;;
66546;SDS011;53400;50.364;14.874;2022-08-19T04:46:18;14.23;;;10.57;;
66546;SDS011;53400;50.364;14.874;2022-08-19T04:48:44;13.70;;;11.18;;
66546;SDS011;53400;50.364;14.874;2022-08-19T04:51:11;16.98;;;12.43;;
66546;SDS011;53400;50.364;14.874;2022-08-19T04:53:39;16.10;;;13.02;;
66546;SDS011;53400;50.364;14.874;2022-08-19T04:56:08;18.17;;;13.68;;
66546;SDS011;53400;50.364;14.874;2022-08-19T04:58:35;17.58;;;14.07;;
66546;SDS011;53400;50.364;14.874;2022-08-19T05:01:03;19.55;;;14.48;;
66546;SDS011;53400;50.364;14.874;2022-08-19T05:03:30;12.57;;;9.38;;
66546;SDS011;53400;50.364;14.874;2022-08-19T05:05:59;14.32;;;10.70;;
66546;SDS011;53400;50.364;14.874;2022-08-19T05:08:31;17.58;;;13.15;;
66546;SDS011;53400;50.364;14.874;2022-08-19T05:10:57;19.13;;;15.38;;
66546;SDS011;53400;50.364;14.874;2022-08-19T05:13:23;21.20;;;15.98;;
66546;SDS011;53400;50.364;14.874;2022-08-19T05:15:53;20.25;;;15.93;;
66546;SDS011;53400;50.364;14.874;2022-08-19T05:18:20;20.08;;;16.08;;
66546;SDS011;53400;50.364;14.874;2022-08-19T05:21:07;18.27;;;15.52;;
66546;SDS011;53400;50.364;14.874;2022-08-19T05:23:53;19.83;;;14.63;;
66546;SDS011;53400;50.364;14.874;2022-08-19T05:26:18;19.50;;;15.80;;
66546;SDS011;53400;50.364;14.874;2022-08-19T05:28:44;19.52;;;15.55;;
66546;SDS011;53400;50.364;14.874;2022-08-19T05:31:10;19.75;;;15.57;;
66546;SDS011;53400;50.364;14.874;2022-08-19T05:33:36;18.08;;;15.18;;
66546;SDS011;53400;50.364;14.874;2022-08-19T05:36:03;18.70;;;15.35;;
66546;SDS011;53400;50.364;14.874;2022-08-19T05:38:31;19.35;;;15.45;;
66546;SDS011;53400;50.364;14.874;2022-08-19T05:40:57;18.25;;;15.13;;
66546;SDS011;53400;50.364;14.874;2022-08-19T05:43:22;20.65;;;17.20;;
66546;SDS011;53400;50.364;14.874;2022-08-19T05:45:48;18.27;;;14.48;;
66546;SDS011;53400;50.364;14.874;2022-08-19T05:48:16;20.77;;;16.25;;
66546;SDS011;53400;50.364;14.874;2022-08-19T05:50:45;19.35;;;16.38;;
66546;SDS011;53400;50.364;14.874;2022-08-19T05:53:11;18.77;;;16.40;;
66546;SDS011;53400;50.364;14.874;2022-08-19T05:55:39;17.85;;;14.40;;
66546;SDS011;53400;50.364;14.874;2022-08-19T05:58:05;18.55;;;16.23;;
66546;SDS011;53400;50.364;14.874;2022-08-19T06:00:32;22.65;;;15.00;;
66546;SDS011;53400;50.364;14.874;2022-08-19T06:02:58;24.77;;;17.60;;
66546;SDS011;53400;50.364;14.874;2022-08-19T06:05:28;22.27;;;17.45;;
66546;SDS011;53400;50.364;14.874;2022-08-19T06:07:54;20.52;;;16.55;;
66546;SDS011;53400;50.364;14.874;2022-08-19T06:10:20;20.92;;;17.83;;
66546;SDS011;53400;50.364;14.874;2022-08-19T06:12:48;20.58;;;17.80;;
66546;SDS011;53400;50.364;14.874;2022-08-19T06:15:14;23.23;;;18.85;;
66546;SDS011;53400;50.364;14.874;2022-08-19T06:17:40;22.50;;;18.92;;
66546;SDS011;53400;50.364;14.874;2022-08-19T06:20:10;20.52;;;17.92;;
66546;SDS011;53400;50.364;14.874;2022-08-19T06:22:38;21.02;;;18.45;;
66546;SDS011;53400;50.364;14.874;2022-08-19T06:25:05;22.98;;;19.13;;
66546;SDS011;53400;50.364;14.874;2022-08-19T06:27:32;20.20;;;17.83;;
66546;SDS011;53400;50.364;14.874;2022-08-19T06:30:00;23.52;;;19.55;;
66546;SDS011;53400;50.364;14.874;2022-08-19T06:32:27;23.17;;;18.80;;
66546;SDS011;53400;50.364;14.874;2022-08-19T06:34:53;22.17;;;19.20;;
66546;SDS011;53400;50.364;14.874;2022-08-19T06:37:19;22.55;;;19.23;;
66546;SDS011;53400;50.364;14.874;2022-08-19T06:39:47;22.85;;;18.73;;
66546;SDS011;53400;50.364;14.874;2022-08-19T06:42:13;20.98;;;18.77;;
66546;SDS011;53400;50.364;14.874;2022-08-19T06:44:42;21.50;;;18.35;;
66546;SDS011;53400;50.364;14.874;2022-08-19T06:47:12;20.92;;;18.52;;
66546;SDS011;53400;50.364;14.874;2022-08-19T06:49:41;20.85;;;18.55;;
66546;SDS011;53400;50.364;14.874;2022-08-19T06:52:08;20.02;;;17.90;;
66546;SDS011;53400;50.364;14.874;2022-08-19T06:54:37;21.33;;;17.88;;
66546;SDS011;53400;50.364;14.874;2022-08-19T06:57:04;22.27;;;18.23;;
66546;SDS011;53400;50.364;14.874;2022-08-19T06:59:32;20.27;;;17.98;;
66546;SDS011;53400;50.364;14.874;2022-08-19T07:01:59;19.85;;;17.27;;
66546;SDS011;53400;50.364;14.874;2022-08-19T07:04:28;20.48;;;18.02;;
66546;SDS011;53400;50.364;14.874;2022-08-19T07:06:59;20.05;;;16.60;;
66546;SDS011;53400;50.364;14.874;2022-08-19T07:09:27;21.75;;;18.00;;
66546;SDS011;53400;50.364;14.874;2022-08-19T07:11:54;22.02;;;18.50;;
66546;SDS011;53400;50.364;14.874;2022-08-19T07:14:21;19.02;;;17.02;;
66546;SDS011;53400;50.364;14.874;2022-08-19T07:16:51;21.58;;;18.45;;
66546;SDS011;53400;50.364;14.874;2022-08-19T07:19:20;21.52;;;18.42;;
66546;SDS011;53400;50.364;14.874;2022-08-19T07:21:48;22.08;;;18.23;;
66546;SDS011;53400;50.364;14.874;2022-08-19T07:24:18;20.60;;;17.75;;
66546;SDS011;53400;50.364;14.874;2022-08-19T07:26:44;22.25;;;18.77;;
66546;SDS011;53400;50.364;14.874;2022-08-19T07:29:11;20.48;;;18.05;;
66546;SDS011;53400;50.364;14.874;2022-08-19T07:31:38;20.25;;;17.98;;
66546;SDS011;53400;50.364;14.874;2022-08-19T07:34:04;21.05;;;18.17;;
66546;SDS011;53400;50.364;14.874;2022-08-19T07:36:34;22.00;;;19.35;;
66546;SDS011;53400;50.364;14.874;2022-08-19T07:39:05;21.60;;;18.80;;
66546;SDS011;53400;50.364;14.874;2022-08-19T07:41:34;21.50;;;19.25;;
66546;SDS011;53400;50.364;14.874;2022-08-19T07:44:02;26.75;;;19.85;;
66546;SDS011;53400;50.364;14.874;2022-08-19T07:46:30;22.17;;;19.05;;
66546;SDS011;53400;50.364;14.874;2022-08-19T07:48:56;21.52;;;19.15;;
66546;SDS011;53400;50.364;14.874;2022-08-19T07:51:22;21.88;;;19.38;;
66546;SDS011;53400;50.364;14.874;2022-08-19T07:53:48;19.60;;;16.88;;
66546;SDS011;53400;50.364;14.874;2022-08-19T07:56:17;22.38;;;18.40;;
66546;SDS011;53400;50.364;14.874;2022-08-19T07:58:45;20.00;;;17.90;;
66546;SDS011;53400;50.364;14.874;2022-08-19T08:01:13;19.55;;;17.35;;
66546;SDS011;53400;50.364;14.874;2022-08-19T08:03:41;21.45;;;19.10;;
66546;SDS011;53400;50.364;14.874;2022-08-19T08:06:26;20.45;;;18.35;;
66546;SDS011;53400;50.364;14.874;2022-08-19T08:09:11;18.38;;;16.48;;
66546;SDS011;53400;50.364;14.874;2022-08-19T08:11:43;18.67;;;16.67;;
66546;SDS011;53400;50.364;14.874;2022-08-19T08:14:16;20.45;;;17.73;;
66546;SDS011;53400;50.364;14.874;2022-08-19T08:16:44;23.75;;;18.77;;
66546;SDS011;53400;50.364;14.874;2022-08-19T08:19:11;20.33;;;16.63;;
66546;SDS011;53400;50.364;14.874;2022-08-19T08:21:40;19.25;;;17.30;;
66546;SDS011;53400;50.364;14.874;2022-08-19T08:24:07;19.48;;;17.38;;
66546;SDS011;53400;50.364;14.874;2022-08-19T08:26:33;20.10;;;18.00;;
66546;SDS011;53400;50.364;14.874;2022-08-19T08:29:00;18.33;;;16.48;;
66546;SDS011;53400;50.364;14.874;2022-08-19T08:31:27;18.63;;;16.73;;
66546;SDS011;53400;50.364;14.874;2022-08-19T08:33:54;18.17;;;16.27;;
66546;SDS011;53400;50.364;14.874;2022-08-19T08:36:20;20.15;;;18.00;;
66546;SDS011;53400;50.364;14.874;2022-08-19T08:38:46;21.77;;;18.30;;
66546;SDS011;53400;50.364;14.874;2022-08-19T08:41:14;19.35;;;17.35;;
66546;SDS011;53400;50.364;14.874;2022-08-19T08:43:49;21.00;;;18.55;;
66546;SDS011;53400;50.364;14.874;2022-08-19T08:46:19;20.95;;;18.30;;
66546;SDS011;53400;50.364;14.874;2022-08-19T08:48:50;29.85;;;20.67;;
66546;SDS011;53400;50.364;14.874;2022-08-19T08:51:20;22.80;;;19.77;;
66546;SDS011;53400;50.364;14.874;2022-08-19T08:53:51;20.67;;;18.52;;
66546;SDS011;53400;50.364;14.874;2022-08-19T08:56:19;35.47;;;20.95;;
66546;SDS011;53400;50.364;14.874;2022-08-19T08:58:47;24.95;;;20.55;;
66546;SDS011;53400;50.364;14.874;2022-08-19T09:01:21;22.98;;;20.60;;
66546;SDS011;53400;50.364;14.874;2022-08-19T09:03:47;20.20;;;18.13;;
66546;SDS011;53400;50.364;14.874;2022-08-19T09:06:14;22.60;;;19.23;;
66546;SDS011;53400;50.364;14.874;2022-08-19T09:08:53;21.38;;;19.13;;
66546;SDS011;53400;50.364;14.874;2022-08-19T09:11:40;20.95;;;18.77;;
66546;SDS011;53400;50.364;14.874;2022-08-19T09:14:19;20.95;;;18.63;;
66546;SDS011;53400;50.364;14.874;2022-08-19T09:17:02;20.95;;;18.85;;
66546;SDS011;53400;50.364;14.874;2022-08-19T09:19:28;20.13;;;18.02;;
66546;SDS011;53400;50.364;14.874;2022-08-19T09:21:55;20.73;;;18.63;;
66546;SDS011;53400;50.364;14.874;2022-08-19T09:24:21;22.05;;;19.75;;
66546;SDS011;53400;50.364;14.874;2022-08-19T09:26:47;22.38;;;19.73;;
66546;SDS011;53400;50.364;14.874;2022-08-19T09:29:13;22.17;;;19.98;;
66546;SDS011;53400;50.364;14.874;2022-08-19T09:31:39;19.98;;;17.88;;
66546;SDS011;53400;50.364;14.874;2022-08-19T09:34:07;21.95;;;19.73;;
66546;SDS011;53400;50.364;14.874;2022-08-19T09:36:33;22.35;;;20.00;;
66546;SDS011;53400;50.364;14.874;2022-08-19T09:39:02;21.60;;;19.40;;
66546;SDS011;53400;50.364;14.874;2022-08-19T09:41:28;22.20;;;19.00;;
66546;SDS011;53400;50.364;14.874;2022-08-19T09:43:55;20.98;;;18.77;;
66546;SDS011;53400;50.364;14.874;2022-08-19T09:46:23;20.77;;;18.67;;
66546;SDS011;53400;50.364;14.874;2022-08-19T09:48:50;22.50;;;19.60;;
66546;SDS011;53400;50.364;14.874;2022-08-19T09:51:20;20.63;;;18.52;;
66546;SDS011;53400;50.364;14.874;2022-08-19T09:53:47;20.83;;;18.73;;
66546;SDS011;53400;50.364;14.874;2022-08-19T09:56:19;19.05;;;17.05;;
66546;SDS011;53400;50.364;14.874;2022-08-19T09:58:46;21.38;;;19.15;;
66546;SDS011;53400;50.364;14.874;2022-08-19T10:01:15;21.42;;;19.23;;
66546;SDS011;53400;50.364;14.874;2022-08-19T10:03:46;22.00;;;19.70;;
66546;SDS011;53400;50.364;14.874;2022-08-19T10:06:14;21.33;;;19.05;;
66546;SDS011;53400;50.364;14.874;2022-08-19T10:08:41;21.35;;;19.08;;
66546;SDS011;53400;50.364;14.874;2022-08-19T10:11:07;20.83;;;18.73;;
66546;SDS011;53400;50.364;14.874;2022-08-19T10:13:35;21.55;;;19.35;;
66546;SDS011;53400;50.364;14.874;2022-08-19T10:16:03;21.65;;;19.45;;
66546;SDS011;53400;50.364;14.874;2022-08-19T10:18:30;22.75;;;19.95;;
66546;SDS011;53400;50.364;14.874;2022-08-19T10:21:02;20.80;;;18.67;;
66546;SDS011;53400;50.364;14.874;2022-08-19T10:23:34;21.70;;;19.50;;
66546;SDS011;53400;50.364;14.874;2022-08-19T10:26:03;20.05;;;18.08;;
66546;SDS011;53400;50.364;14.874;2022-08-19T10:28:31;21.02;;;18.92;;
66546;SDS011;53400;50.364;14.874;2022-08-19T10:30:57;21.70;;;19.55;;
66546;SDS011;53400;50.364;14.874;2022-08-19T10:33:24;21.25;;;19.05;;
66546;SDS011;53400;50.364;14.874;2022-08-19T10:35:58;20.58;;;18.33;;
66546;SDS011;53400;50.364;14.874;2022-08-19T10:38:25;20.20;;;17.77;;
66546;SDS011;53400;50.364;14.874;2022-08-19T10:40:51;20.88;;;18.77;;
66546;SDS011;53400;50.364;14.874;2022-08-19T10:43:18;20.55;;;18.35;;
66546;SDS011;53400;50.364;14.874;2022-08-19T10:45:48;21.50;;;19.42;;
66546;SDS011;53400;50.364;14.874;2022-08-19T10:48:17;19.73;;;17.63;;
66546;SDS011;53400;50.364;14.874;2022-08-19T10:50:43;19.80;;;17.80;;
66546;SDS011;53400;50.364;14.874;2022-08-19T10:53:27;19.65;;;17.75;;
66546;SDS011;53400;50.364;14.874;2022-08-19T10:55:53;20.50;;;18.42;;
66546;SDS011;53400;50.364;14.874;2022-08-19T10:58:38;21.17;;;19.05;;
66546;SDS011;53400;50.364;14.874;2022-08-19T11:01:06;20.25;;;18.27;;
66546;SDS011;53400;50.364;14.874;2022-08-19T11:03:32;21.50;;;19.23;;
66546;SDS011;53400;50.364;14.874;2022-08-19T11:05:59;19.45;;;17.55;;
66546;SDS011;53400;50.364;14.874;2022-08-19T11:08:25;19.75;;;17.80;;
66546;SDS011;53400;50.364;14.874;2022-08-19T11:10:52;18.52;;;16.63;;
66546;SDS011;53400;50.364;14.874;2022-08-19T11:13:22;19.40;;;17.40;;
66546;SDS011;53400;50.364;14.874;2022-08-19T11:15:56;19.25;;;17.25;;
66546;SDS011;53400;50.364;14.874;2022-08-19T11:18:24;19.38;;;17.30;;
66546;SDS011;53400;50.364;14.874;2022-08-19T11:20:49;19.95;;;18.02;;
66546;SDS011;53400;50.364;14.874;2022-08-19T11:23:15;24.85;;;19.48;;
66546;SDS011;53400;50.364;14.874;2022-08-19T11:25:41;21.67;;;17.98;;
66546;SDS011;53400;50.364;14.874;2022-08-19T11:28:07;19.98;;;18.02;;
66546;SDS011;53400;50.364;14.874;2022-08-19T11:30:33;19.15;;;17.25;;
66546;SDS011;53400;50.364;14.874;2022-08-19T11:33:01;18.40;;;16.55;;
66546;SDS011;53400;50.364;14.874;2022-08-19T11:35:27;18.90;;;17.00;;
66546;SDS011;53400;50.364;14.874;2022-08-19T11:37:53;19.63;;;17.67;;
66546;SDS011;53400;50.364;14.874;2022-08-19T11:40:19;19.80;;;17.58;;
66546;SDS011;53400;50.364;14.874;2022-08-19T11:42:45;17.33;;;15.63;;
66546;SDS011;53400;50.364;14.874;2022-08-19T11:45:20;18.23;;;16.38;;
66546;SDS011;53400;50.364;14.874;2022-08-19T11:47:46;21.50;;;18.33;;
66546;SDS011;53400;50.364;14.874;2022-08-19T11:50:14;20.27;;;18.27;;
66546;SDS011;53400;50.364;14.874;2022-08-19T11:52:41;19.70;;;17.60;;
66546;SDS011;53400;50.364;14.874;2022-08-19T11:55:09;18.25;;;16.35;;
66546;SDS011;53400;50.364;14.874;2022-08-19T11:57:34;19.02;;;17.02;;
66546;SDS011;53400;50.364;14.874;2022-08-19T12:00:01;19.48;;;17.48;;
66546;SDS011;53400;50.364;14.874;2022-08-19T12:02:28;18.80;;;16.90;;
66546;SDS011;53400;50.364;14.874;2022-08-19T12:04:54;17.30;;;15.60;;
66546;SDS011;53400;50.364;14.874;2022-08-19T12:07:22;18.02;;;16.15;;
66546;SDS011;53400;50.364;14.874;2022-08-19T12:09:48;18.60;;;16.80;;
66546;SDS011;53400;50.364;14.874;2022-08-19T12:12:14;19.75;;;17.75;;
66546;SDS011;53400;50.364;14.874;2022-08-19T12:14:40;17.75;;;16.05;;
66546;SDS011;53400;50.364;14.874;2022-08-19T12:17:07;19.17;;;17.17;;
66546;SDS011;53400;50.364;14.874;2022-08-19T12:19:35;18.08;;;16.17;;
66546;SDS011;53400;50.364;14.874;2022-08-19T12:22:01;17.98;;;16.17;;
66546;SDS011;53400;50.364;14.874;2022-08-19T12:24:31;18.23;;;16.42;;
66546;SDS011;53400;50.364;14.874;2022-08-19T12:26:57;17.85;;;16.13;;
66546;SDS011;53400;50.364;14.874;2022-08-19T12:29:27;16.73;;;15.02;;
66546;SDS011;53400;50.364;14.874;2022-08-19T12:31:56;18.08;;;16.27;;
66546;SDS011;53400;50.364;14.874;2022-08-19T12:34:26;17.20;;;15.57;;
66546;SDS011;53400;50.364;14.874;2022-08-19T12:36:57;17.00;;;15.30;;
66546;SDS011;53400;50.364;14.874;2022-08-19T12:39:23;16.45;;;14.88;;
66546;SDS011;53400;50.364;14.874;2022-08-19T12:41:53;17.08;;;15.38;;
66546;SDS011;53400;50.364;14.874;2022-08-19T12:44:24;16.63;;;14.82;;
66546;SDS011;53400;50.364;14.874;2022-08-19T12:46:50;16.30;;;14.73;;
66546;SDS011;53400;50.364;14.874;2022-08-19T12:49:16;17.52;;;15.73;;
66546;SDS011;53400;50.364;14.874;2022-08-19T12:51:42;17.60;;;15.88;;
66546;SDS011;53400;50.364;14.874;2022-08-19T12:54:08;18.23;;;16.33;;
66546;SDS011;53400;50.364;14.874;2022-08-19T12:56:35;16.83;;;15.23;;
66546;SDS011;53400;50.364;14.874;2022-08-19T12:59:03;16.92;;;15.32;;
66546;SDS011;53400;50.364;14.874;2022-08-19T13:01:30;17.05;;;15.35;;
66546;SDS011;53400;50.364;14.874;2022-08-19T13:03:58;17.85;;;16.15;;
66546;SDS011;53400;50.364;14.874;2022-08-19T13:06:25;18.05;;;16.25;;
66546;SDS011;53400;50.364;14.874;2022-08-19T13:08:50;18.33;;;16.42;;
66546;SDS011;53400;50.364;14.874;2022-08-19T13:11:18;18.10;;;16.17;;
66546;SDS011;53400;50.364;14.874;2022-08-19T13:13:47;17.05;;;15.40;;
66546;SDS011;53400;50.364;14.874;2022-08-19T13:16:15;18.75;;;16.83;;
66546;SDS011;53400;50.364;14.874;2022-08-19T13:18:41;18.23;;;16.33;;
66546;SDS011;53400;50.364;14.874;2022-08-19T13:21:10;18.30;;;16.38;;
66546;SDS011;53400;50.364;14.874;2022-08-19T13:23:41;19.25;;;17.25;;
66546;SDS011;53400;50.364;14.874;2022-08-19T13:26:09;18.13;;;16.33;;
66546;SDS011;53400;50.364;14.874;2022-08-19T13:28:39;18.27;;;16.40;;
66546;SDS011;53400;50.364;14.874;2022-08-19T13:31:27;17.38;;;15.55;;
66546;SDS011;53400;50.364;14.874;2022-08-19T13:34:13;18.95;;;15.95;;
66546;SDS011;53400;50.364;14.874;2022-08-19T13:36:40;17.63;;;15.82;;
66546;SDS011;53400;50.364;14.874;2022-08-19T13:39:07;17.17;;;15.32;;
66546;SDS011;53400;50.364;14.874;2022-08-19T13:41:35;17.23;;;15.43;;
66546;SDS011;53400;50.364;14.874;2022-08-19T13:44:02;16.35;;;14.75;;
66546;SDS011;53400;50.364;14.874;2022-08-19T13:46:30;16.67;;;14.88;;
66546;SDS011;53400;50.364;14.874;2022-08-19T13:48:56;18.55;;;15.18;;
66546;SDS011;53400;50.364;14.874;2022-08-19T13:51:22;15.23;;;13.63;;
66546;SDS011;53400;50.364;14.874;2022-08-19T13:53:49;16.52;;;14.82;;
66546;SDS011;53400;50.364;14.874;2022-08-19T13:56:16;16.17;;;14.48;;
66546;SDS011;53400;50.364;14.874;2022-08-19T13:58:44;16.65;;;14.75;;
66546;SDS011;53400;50.364;14.874;2022-08-19T14:01:10;16.52;;;14.80;;
66546;SDS011;53400;50.364;14.874;2022-08-19T14:03:38;16.30;;;14.38;;
66546;SDS011;53400;50.364;14.874;2022-08-19T14:06:04;16.73;;;15.02;;
66546;SDS011;53400;50.364;14.874;2022-08-19T14:08:30;16.77;;;15.07;;
66546;SDS011;53400;50.364;14.874;2022-08-19T14:10:57;17.70;;;14.85;;
66546;SDS011;53400;50.364;14.874;2022-08-19T14:13:24;15.77;;;14.18;;
66546;SDS011;53400;50.364;14.874;2022-08-19T14:15:50;16.23;;;14.63;;
66546;SDS011;53400;50.364;14.874;2022-08-19T14:18:17;15.77;;;14.07;;